Fort Scott Camps, Ohio
Current Conditions -  °F | °C
As of 3:55 PM on Sunday 23 Nov 2014 (Local Time) from KI67 Reporting Station
Overcast Overcast  
Wind Chill: 55°   Ceiling: 4000
Heat Index: 55°   Visibility: 10mi
Dew Point: 50°   Wind: 9mph
Humidity: 82%   Direction: 150°SSE
Pressure: 29.63"   Gusts: 20mph
Location:  39.2734°N, 84.7476°W
Report Text: KI67 232055Z AUTO 15008G17KT 10SM OVC040 13/10 A2963 RMK AO1 P0004
Loading
Personal Weather Stations






























Interactive Weather Map New forecast layout! Learn more

10-Day Weather Forecast

Advertisements
Track Severe Weather on mobile